sensor_id;sensor_type;location;lat;lon;timestamp;P1;durP1;ratioP1;P2;durP2;ratioP2
15012;SDS011;7603;49.432;11.418;2022-12-22T00:02:10;21.67;;;9.18;;
15012;SDS011;7603;49.432;11.418;2022-12-22T00:05:15;17.75;;;10.35;;
15012;SDS011;7603;49.432;11.418;2022-12-22T00:08:07;30.75;;;12.55;;
15012;SDS011;7603;49.432;11.418;2022-12-22T00:10:52;14.60;;;9.05;;
15012;SDS011;7603;49.432;11.418;2022-12-22T00:13:41;29.40;;;11.75;;
15012;SDS011;7603;49.432;11.418;2022-12-22T00:16:28;22.20;;;10.13;;
15012;SDS011;7603;49.432;11.418;2022-12-22T00:19:17;29.98;;;11.80;;
15012;SDS011;7603;49.432;11.418;2022-12-22T00:22:12;18.58;;;9.77;;
15012;SDS011;7603;49.432;11.418;2022-12-22T00:24:58;17.92;;;11.00;;
15012;SDS011;7603;49.432;11.418;2022-12-22T00:27:43;16.05;;;8.85;;
15012;SDS011;7603;49.432;11.418;2022-12-22T00:30:27;17.85;;;9.35;;
15012;SDS011;7603;49.432;11.418;2022-12-22T00:33:12;15.88;;;10.13;;
15012;SDS011;7603;49.432;11.418;2022-12-22T00:35:59;17.83;;;11.93;;
15012;SDS011;7603;49.432;11.418;2022-12-22T00:38:44;18.38;;;11.18;;
15012;SDS011;7603;49.432;11.418;2022-12-22T00:41:29;17.38;;;10.63;;
15012;SDS011;7603;49.432;11.418;2022-12-22T00:44:13;17.35;;;10.40;;
15012;SDS011;7603;49.432;11.418;2022-12-22T00:46:57;17.60;;;11.57;;
15012;SDS011;7603;49.432;11.418;2022-12-22T00:49:43;16.45;;;10.80;;
15012;SDS011;7603;49.432;11.418;2022-12-22T00:52:30;15.23;;;9.23;;
15012;SDS011;7603;49.432;11.418;2022-12-22T00:55:16;14.45;;;9.73;;
15012;SDS011;7603;49.432;11.418;2022-12-22T00:58:03;18.20;;;10.45;;
15012;SDS011;7603;49.432;11.418;2022-12-22T01:00:53;13.88;;;9.60;;
15012;SDS011;7603;49.432;11.418;2022-12-22T01:03:37;15.93;;;10.40;;
15012;SDS011;7603;49.432;11.418;2022-12-22T01:06:21;13.85;;;9.50;;
15012;SDS011;7603;49.432;11.418;2022-12-22T01:09:08;16.10;;;10.25;;
15012;SDS011;7603;49.432;11.418;2022-12-22T01:11:53;16.63;;;10.35;;
15012;SDS011;7603;49.432;11.418;2022-12-22T01:14:37;16.05;;;10.70;;
15012;SDS011;7603;49.432;11.418;2022-12-22T01:17:21;19.60;;;11.52;;
15012;SDS011;7603;49.432;11.418;2022-12-22T01:20:06;20.45;;;12.63;;
15012;SDS011;7603;49.432;11.418;2022-12-22T01:22:50;20.50;;;11.98;;
15012;SDS011;7603;49.432;11.418;2022-12-22T01:25:34;13.45;;;9.52;;
15012;SDS011;7603;49.432;11.418;2022-12-22T01:28:18;20.70;;;10.48;;
15012;SDS011;7603;49.432;11.418;2022-12-22T01:31:16;20.48;;;10.65;;
15012;SDS011;7603;49.432;11.418;2022-12-22T01:34:03;16.05;;;8.75;;
15012;SDS011;7603;49.432;11.418;2022-12-22T01:36:47;16.70;;;10.18;;
15012;SDS011;7603;49.432;11.418;2022-12-22T01:39:32;15.13;;;9.57;;
15012;SDS011;7603;49.432;11.418;2022-12-22T01:42:16;28.65;;;12.82;;
15012;SDS011;7603;49.432;11.418;2022-12-22T01:48:12;17.65;;;9.90;;
15012;SDS011;7603;49.432;11.418;2022-12-22T01:51:06;14.05;;;9.02;;
15012;SDS011;7603;49.432;11.418;2022-12-22T01:53:54;15.52;;;9.05;;
15012;SDS011;7603;49.432;11.418;2022-12-22T01:56:40;17.58;;;11.15;;
15012;SDS011;7603;49.432;11.418;2022-12-22T01:59:26;13.40;;;9.13;;
15012;SDS011;7603;49.432;11.418;2022-12-22T02:02:10;13.80;;;9.52;;
15012;SDS011;7603;49.432;11.418;2022-12-22T02:04:58;12.32;;;8.88;;
15012;SDS011;7603;49.432;11.418;2022-12-22T02:10:56;12.55;;;8.50;;
15012;SDS011;7603;49.432;11.418;2022-12-22T02:17:20;11.30;;;8.40;;
15012;SDS011;7603;49.432;11.418;2022-12-22T02:20:33;11.95;;;8.80;;
15012;SDS011;7603;49.432;11.418;2022-12-22T02:26:48;12.75;;;8.55;;
15012;SDS011;7603;49.432;11.418;2022-12-22T02:29:37;12.23;;;8.43;;
15012;SDS011;7603;49.432;11.418;2022-12-22T02:32:32;11.90;;;9.07;;
15012;SDS011;7603;49.432;11.418;2022-12-22T02:35:19;15.23;;;8.45;;
15012;SDS011;7603;49.432;11.418;2022-12-22T02:38:07;10.38;;;8.45;;
15012;SDS011;7603;49.432;11.418;2022-12-22T02:47:28;14.60;;;9.65;;
15012;SDS011;7603;49.432;11.418;2022-12-22T02:53:22;10.25;;;8.63;;
15012;SDS011;7603;49.432;11.418;2022-12-22T02:56:07;15.52;;;9.15;;
15012;SDS011;7603;49.432;11.418;2022-12-22T02:58:52;12.00;;;8.50;;
15012;SDS011;7603;49.432;11.418;2022-12-22T03:01:37;11.73;;;8.77;;
15012;SDS011;7603;49.432;11.418;2022-12-22T03:04:22;12.77;;;8.80;;
15012;SDS011;7603;49.432;11.418;2022-12-22T03:07:06;12.57;;;8.35;;
15012;SDS011;7603;49.432;11.418;2022-12-22T03:09:50;12.48;;;9.05;;
15012;SDS011;7603;49.432;11.418;2022-12-22T03:12:35;12.80;;;8.68;;
15012;SDS011;7603;49.432;11.418;2022-12-22T03:15:19;11.45;;;7.75;;
15012;SDS011;7603;49.432;11.418;2022-12-22T03:18:04;14.73;;;8.85;;
15012;SDS011;7603;49.432;11.418;2022-12-22T03:20:50;11.25;;;8.07;;
15012;SDS011;7603;49.432;11.418;2022-12-22T03:23:34;14.60;;;8.95;;
15012;SDS011;7603;49.432;11.418;2022-12-22T03:26:19;14.38;;;7.93;;
15012;SDS011;7603;49.432;11.418;2022-12-22T03:28:45;14.38;;;9.40;;
15012;SDS011;7603;49.432;11.418;2022-12-22T03:31:11;14.80;;;10.15;;
15012;SDS011;7603;49.432;11.418;2022-12-22T03:33:37;12.68;;;8.27;;
15012;SDS011;7603;49.432;11.418;2022-12-22T03:36:03;12.45;;;9.07;;
15012;SDS011;7603;49.432;11.418;2022-12-22T03:38:30;11.90;;;7.75;;
15012;SDS011;7603;49.432;11.418;2022-12-22T03:40:56;9.77;;;7.05;;
15012;SDS011;7603;49.432;11.418;2022-12-22T03:43:22;10.35;;;7.68;;
15012;SDS011;7603;49.432;11.418;2022-12-22T03:46:09;9.30;;;8.10;;
15012;SDS011;7603;49.432;11.418;2022-12-22T03:48:55;9.13;;;8.00;;
15012;SDS011;7603;49.432;11.418;2022-12-22T03:54:14;10.82;;;8.35;;
15012;SDS011;7603;49.432;11.418;2022-12-22T03:56:42;10.38;;;6.65;;
15012;SDS011;7603;49.432;11.418;2022-12-22T03:59:08;9.70;;;7.35;;
15012;SDS011;7603;49.432;11.418;2022-12-22T04:01:39;9.27;;;7.30;;
15012;SDS011;7603;49.432;11.418;2022-12-22T04:04:06;11.43;;;7.95;;
15012;SDS011;7603;49.432;11.418;2022-12-22T04:06:31;10.60;;;7.30;;
15012;SDS011;7603;49.432;11.418;2022-12-22T04:08:57;12.00;;;7.13;;
15012;SDS011;7603;49.432;11.418;2022-12-22T04:11:23;12.10;;;7.90;;
15012;SDS011;7603;49.432;11.418;2022-12-22T04:14:07;10.35;;;7.03;;
15012;SDS011;7603;49.432;11.418;2022-12-22T04:16:33;12.57;;;7.43;;
15012;SDS011;7603;49.432;11.418;2022-12-22T04:18:58;11.25;;;7.93;;
15012;SDS011;7603;49.432;11.418;2022-12-22T04:21:24;10.20;;;7.75;;
15012;SDS011;7603;49.432;11.418;2022-12-22T04:23:50;9.65;;;7.20;;
15012;SDS011;7603;49.432;11.418;2022-12-22T04:26:17;11.57;;;7.45;;
15012;SDS011;7603;49.432;11.418;2022-12-22T04:28:43;15.38;;;7.93;;
15012;SDS011;7603;49.432;11.418;2022-12-22T04:31:09;7.90;;;6.93;;
15012;SDS011;7603;49.432;11.418;2022-12-22T04:33:34;9.07;;;8.18;;
15012;SDS011;7603;49.432;11.418;2022-12-22T04:36:00;8.20;;;6.40;;
15012;SDS011;7603;49.432;11.418;2022-12-22T04:38:26;8.90;;;7.03;;
15012;SDS011;7603;49.432;11.418;2022-12-22T04:40:51;9.23;;;6.18;;
15012;SDS011;7603;49.432;11.418;2022-12-22T04:43:17;9.95;;;6.35;;
15012;SDS011;7603;49.432;11.418;2022-12-22T04:45:43;8.23;;;6.53;;
15012;SDS011;7603;49.432;11.418;2022-12-22T04:48:09;8.80;;;6.63;;
15012;SDS011;7603;49.432;11.418;2022-12-22T04:50:34;9.40;;;6.88;;
15012;SDS011;7603;49.432;11.418;2022-12-22T04:53:01;11.65;;;7.05;;
15012;SDS011;7603;49.432;11.418;2022-12-22T04:55:26;8.52;;;6.30;;
15012;SDS011;7603;49.432;11.418;2022-12-22T04:57:52;7.82;;;6.65;;
15012;SDS011;7603;49.432;11.418;2022-12-22T05:00:18;10.77;;;7.13;;
15012;SDS011;7603;49.432;11.418;2022-12-22T05:02:44;12.07;;;7.32;;
15012;SDS011;7603;49.432;11.418;2022-12-22T05:05:10;11.32;;;7.50;;
15012;SDS011;7603;49.432;11.418;2022-12-22T05:07:35;9.27;;;6.47;;
15012;SDS011;7603;49.432;11.418;2022-12-22T05:10:01;21.02;;;9.10;;
15012;SDS011;7603;49.432;11.418;2022-12-22T05:12:28;13.32;;;6.72;;
15012;SDS011;7603;49.432;11.418;2022-12-22T05:15:12;9.00;;;7.20;;
15012;SDS011;7603;49.432;11.418;2022-12-22T05:17:38;8.02;;;6.57;;
15012;SDS011;7603;49.432;11.418;2022-12-22T05:20:03;6.65;;;5.97;;
15012;SDS011;7603;49.432;11.418;2022-12-22T05:22:29;6.88;;;6.10;;
15012;SDS011;7603;49.432;11.418;2022-12-22T05:24:55;10.98;;;7.70;;
15012;SDS011;7603;49.432;11.418;2022-12-22T05:27:21;7.07;;;5.55;;
15012;SDS011;7603;49.432;11.418;2022-12-22T05:29:46;7.30;;;6.43;;
15012;SDS011;7603;49.432;11.418;2022-12-22T05:32:12;7.00;;;5.97;;
15012;SDS011;7603;49.432;11.418;2022-12-22T05:34:38;6.78;;;6.07;;
15012;SDS011;7603;49.432;11.418;2022-12-22T05:37:03;6.90;;;6.05;;
15012;SDS011;7603;49.432;11.418;2022-12-22T05:39:29;8.90;;;6.15;;
15012;SDS011;7603;49.432;11.418;2022-12-22T05:41:54;7.05;;;6.32;;
15012;SDS011;7603;49.432;11.418;2022-12-22T05:44:20;6.72;;;5.57;;
15012;SDS011;7603;49.432;11.418;2022-12-22T05:46:48;6.65;;;5.90;;
15012;SDS011;7603;49.432;11.418;2022-12-22T05:49:15;7.45;;;6.00;;
15012;SDS011;7603;49.432;11.418;2022-12-22T05:51:40;6.72;;;6.03;;
15012;SDS011;7603;49.432;11.418;2022-12-22T05:54:06;7.25;;;5.95;;
15012;SDS011;7603;49.432;11.418;2022-12-22T05:56:32;7.60;;;6.35;;
15012;SDS011;7603;49.432;11.418;2022-12-22T05:58:57;7.30;;;5.75;;
15012;SDS011;7603;49.432;11.418;2022-12-22T06:01:23;6.93;;;5.18;;
15012;SDS011;7603;49.432;11.418;2022-12-22T06:03:48;5.97;;;4.65;;
15012;SDS011;7603;49.432;11.418;2022-12-22T06:06:14;5.07;;;4.63;;
15012;SDS011;7603;49.432;11.418;2022-12-22T06:08:39;7.40;;;5.38;;
15012;SDS011;7603;49.432;11.418;2022-12-22T06:11:05;5.38;;;4.72;;
15012;SDS011;7603;49.432;11.418;2022-12-22T06:13:31;6.68;;;5.55;;
15012;SDS011;7603;49.432;11.418;2022-12-22T06:15:57;5.32;;;4.75;;
15012;SDS011;7603;49.432;11.418;2022-12-22T06:18:22;7.20;;;5.18;;
15012;SDS011;7603;49.432;11.418;2022-12-22T06:20:51;5.68;;;4.95;;
15012;SDS011;7603;49.432;11.418;2022-12-22T06:23:17;6.93;;;6.07;;
15012;SDS011;7603;49.432;11.418;2022-12-22T06:25:51;8.25;;;5.05;;
15012;SDS011;7603;49.432;11.418;2022-12-22T06:28:21;7.93;;;5.25;;
15012;SDS011;7603;49.432;11.418;2022-12-22T06:30:47;6.03;;;4.65;;
15012;SDS011;7603;49.432;11.418;2022-12-22T06:33:13;6.75;;;4.93;;
15012;SDS011;7603;49.432;11.418;2022-12-22T06:35:39;4.97;;;4.60;;
15012;SDS011;7603;49.432;11.418;2022-12-22T06:38:04;4.35;;;3.95;;
15012;SDS011;7603;49.432;11.418;2022-12-22T06:40:30;4.70;;;4.20;;
15012;SDS011;7603;49.432;11.418;2022-12-22T06:42:56;8.05;;;6.63;;
15012;SDS011;7603;49.432;11.418;2022-12-22T06:45:37;5.05;;;4.65;;
15012;SDS011;7603;49.432;11.418;2022-12-22T06:48:04;4.40;;;4.00;;
15012;SDS011;7603;49.432;11.418;2022-12-22T06:50:31;4.05;;;3.60;;
15012;SDS011;7603;49.432;11.418;2022-12-22T06:52:57;3.58;;;3.28;;
15012;SDS011;7603;49.432;11.418;2022-12-22T06:55:23;3.72;;;3.30;;
15012;SDS011;7603;49.432;11.418;2022-12-22T06:57:48;4.03;;;3.60;;
15012;SDS011;7603;49.432;11.418;2022-12-22T07:00:14;4.00;;;3.53;;
15012;SDS011;7603;49.432;11.418;2022-12-22T07:02:40;4.35;;;3.50;;
15012;SDS011;7603;49.432;11.418;2022-12-22T07:05:06;7.88;;;3.65;;
15012;SDS011;7603;49.432;11.418;2022-12-22T07:07:31;3.58;;;3.30;;
15012;SDS011;7603;49.432;11.418;2022-12-22T07:09:57;4.00;;;3.70;;
15012;SDS011;7603;49.432;11.418;2022-12-22T07:12:23;4.10;;;3.80;;
15012;SDS011;7603;49.432;11.418;2022-12-22T07:14:49;6.97;;;3.42;;
15012;SDS011;7603;49.432;11.418;2022-12-22T07:17:14;3.75;;;3.45;;
15012;SDS011;7603;49.432;11.418;2022-12-22T07:19:40;3.90;;;3.60;;
15012;SDS011;7603;49.432;11.418;2022-12-22T07:22:06;3.88;;;3.58;;
15012;SDS011;7603;49.432;11.418;2022-12-22T07:24:31;4.43;;;3.78;;
15012;SDS011;7603;49.432;11.418;2022-12-22T07:26:57;3.08;;;2.78;;
15012;SDS011;7603;49.432;11.418;2022-12-22T07:29:23;3.38;;;3.08;;
15012;SDS011;7603;49.432;11.418;2022-12-22T07:31:49;3.53;;;3.22;;
15012;SDS011;7603;49.432;11.418;2022-12-22T07:34:15;4.22;;;2.63;;
15012;SDS011;7603;49.432;11.418;2022-12-22T07:36:41;7.68;;;6.97;;
15012;SDS011;7603;49.432;11.418;2022-12-22T07:39:06;4.72;;;2.85;;
15012;SDS011;7603;49.432;11.418;2022-12-22T07:41:32;3.58;;;3.20;;
15012;SDS011;7603;49.432;11.418;2022-12-22T07:44:16;3.58;;;3.28;;
15012;SDS011;7603;49.432;11.418;2022-12-22T07:46:42;5.50;;;4.63;;
15012;SDS011;7603;49.432;11.418;2022-12-22T07:49:09;3.38;;;3.13;;
15012;SDS011;7603;49.432;11.418;2022-12-22T07:51:56;4.03;;;3.35;;
15012;SDS011;7603;49.432;11.418;2022-12-22T07:54:22;4.22;;;3.03;;
15012;SDS011;7603;49.432;11.418;2022-12-22T07:56:49;5.57;;;3.75;;
15012;SDS011;7603;49.432;11.418;2022-12-22T07:59:15;4.45;;;3.90;;
15012;SDS011;7603;49.432;11.418;2022-12-22T08:01:41;2.78;;;2.55;;
15012;SDS011;7603;49.432;11.418;2022-12-22T08:04:07;6.78;;;3.63;;
15012;SDS011;7603;49.432;11.418;2022-12-22T08:06:34;6.25;;;4.07;;
15012;SDS011;7603;49.432;11.418;2022-12-22T08:09:00;2.25;;;2.10;;
15012;SDS011;7603;49.432;11.418;2022-12-22T08:11:26;3.38;;;3.10;;
15012;SDS011;7603;49.432;11.418;2022-12-22T08:13:52;2.85;;;2.65;;
15012;SDS011;7603;49.432;11.418;2022-12-22T08:16:17;4.68;;;3.30;;
15012;SDS011;7603;49.432;11.418;2022-12-22T08:18:44;2.42;;;2.22;;
15012;SDS011;7603;49.432;11.418;2022-12-22T08:21:10;14.68;;;7.05;;
15012;SDS011;7603;49.432;11.418;2022-12-22T08:23:35;3.17;;;2.95;;
15012;SDS011;7603;49.432;11.418;2022-12-22T08:26:18;21.63;;;8.23;;
15012;SDS011;7603;49.432;11.418;2022-12-22T08:31:39;4.50;;;3.63;;
15012;SDS011;7603;49.432;11.418;2022-12-22T08:34:06;2.60;;;2.40;;
15012;SDS011;7603;49.432;11.418;2022-12-22T08:36:34;2.53;;;1.90;;
15012;SDS011;7603;49.432;11.418;2022-12-22T08:39:04;2.13;;;2.03;;
15012;SDS011;7603;49.432;11.418;2022-12-22T08:41:30;1.95;;;1.85;;
15012;SDS011;7603;49.432;11.418;2022-12-22T08:44:18;2.10;;;2.00;;
15012;SDS011;7603;49.432;11.418;2022-12-22T08:46:49;3.30;;;1.63;;
15012;SDS011;7603;49.432;11.418;2022-12-22T08:49:15;1.85;;;1.60;;
15012;SDS011;7603;49.432;11.418;2022-12-22T08:51:41;2.80;;;2.05;;
15012;SDS011;7603;49.432;11.418;2022-12-22T08:54:07;2.58;;;2.38;;
15012;SDS011;7603;49.432;11.418;2022-12-22T08:56:33;1.67;;;1.58;;
15012;SDS011;7603;49.432;11.418;2022-12-22T08:58:59;1.70;;;1.60;;
15012;SDS011;7603;49.432;11.418;2022-12-22T09:01:30;1.92;;;1.80;;
15012;SDS011;7603;49.432;11.418;2022-12-22T09:03:57;6.38;;;2.90;;
15012;SDS011;7603;49.432;11.418;2022-12-22T09:06:23;1.15;;;1.15;;
15012;SDS011;7603;49.432;11.418;2022-12-22T09:08:56;2.05;;;1.95;;
15012;SDS011;7603;49.432;11.418;2022-12-22T09:11:23;1.20;;;1.20;;
15012;SDS011;7603;49.432;11.418;2022-12-22T09:13:52;1.98;;;1.77;;
15012;SDS011;7603;49.432;11.418;2022-12-22T09:16:19;1.30;;;1.30;;
15012;SDS011;7603;49.432;11.418;2022-12-22T09:18:46;3.30;;;1.52;;
15012;SDS011;7603;49.432;11.418;2022-12-22T09:21:12;1.20;;;1.20;;
15012;SDS011;7603;49.432;11.418;2022-12-22T09:23:37;1.00;;;1.00;;
15012;SDS011;7603;49.432;11.418;2022-12-22T09:26:06;1.30;;;1.20;;
15012;SDS011;7603;49.432;11.418;2022-12-22T09:28:34;1.70;;;1.23;;
15012;SDS011;7603;49.432;11.418;2022-12-22T09:31:00;1.35;;;1.25;;
15012;SDS011;7603;49.432;11.418;2022-12-22T09:33:25;0.90;;;0.90;;
15012;SDS011;7603;49.432;11.418;2022-12-22T09:35:51;1.10;;;1.10;;
15012;SDS011;7603;49.432;11.418;2022-12-22T09:38:17;1.50;;;1.40;;
15012;SDS011;7603;49.432;11.418;2022-12-22T09:40:42;1.10;;;1.10;;
15012;SDS011;7603;49.432;11.418;2022-12-22T09:43:14;1.85;;;1.30;;
15012;SDS011;7603;49.432;11.418;2022-12-22T09:45:43;1.30;;;1.20;;
15012;SDS011;7603;49.432;11.418;2022-12-22T09:48:10;2.72;;;1.38;;
15012;SDS011;7603;49.432;11.418;2022-12-22T09:50:38;1.40;;;1.30;;
15012;SDS011;7603;49.432;11.418;2022-12-22T09:53:06;2.83;;;1.38;;
15012;SDS011;7603;49.432;11.418;2022-12-22T09:55:42;1.88;;;1.02;;
15012;SDS011;7603;49.432;11.418;2022-12-22T09:58:31;0.98;;;0.98;;
15012;SDS011;7603;49.432;11.418;2022-12-22T10:06:13;0.80;;;0.80;;
15012;SDS011;7603;49.432;11.418;2022-12-22T10:08:40;1.27;;;0.98;;
15012;SDS011;7603;49.432;11.418;2022-12-22T10:11:06;1.10;;;1.10;;
15012;SDS011;7603;49.432;11.418;2022-12-22T10:13:36;3.08;;;0.98;;
15012;SDS011;7603;49.432;11.418;2022-12-22T10:16:14;0.88;;;0.88;;
15012;SDS011;7603;49.432;11.418;2022-12-22T10:18:57;1.33;;;0.93;;
15012;SDS011;7603;49.432;11.418;2022-12-22T10:21:24;0.80;;;0.80;;
15012;SDS011;7603;49.432;11.418;2022-12-22T10:23:50;1.50;;;1.10;;
15012;SDS011;7603;49.432;11.418;2022-12-22T10:33:47;1.02;;;1.00;;
15012;SDS011;7603;49.432;11.418;2022-12-22T10:38:58;6.60;;;1.05;;
15012;SDS011;7603;49.432;11.418;2022-12-22T10:41:28;3.28;;;3.08;;
15012;SDS011;7603;49.432;11.418;2022-12-22T10:43:57;3.67;;;2.50;;
15012;SDS011;7603;49.432;11.418;2022-12-22T10:46:30;2.25;;;2.05;;
15012;SDS011;7603;49.432;11.418;2022-12-22T10:51:52;0.80;;;0.80;;
15012;SDS011;7603;49.432;11.418;2022-12-22T10:54:39;1.73;;;1.63;;
15012;SDS011;7603;49.432;11.418;2022-12-22T11:04:50;0.70;;;0.70;;
15012;SDS011;7603;49.432;11.418;2022-12-22T11:07:17;1.35;;;1.23;;
15012;SDS011;7603;49.432;11.418;2022-12-22T11:09:43;5.75;;;1.42;;
15012;SDS011;7603;49.432;11.418;2022-12-22T11:36:47;0.70;;;0.70;;
15012;SDS011;7603;49.432;11.418;2022-12-22T11:39:39;2.50;;;1.70;;
15012;SDS011;7603;49.432;11.418;2022-12-22T11:47:58;4.07;;;0.98;;
15012;SDS011;7603;49.432;11.418;2022-12-22T11:50:39;1.83;;;1.15;;
15012;SDS011;7603;49.432;11.418;2022-12-22T11:53:15;2.88;;;0.80;;
15012;SDS011;7603;49.432;11.418;2022-12-22T11:58:55;0.85;;;0.85;;
15012;SDS011;7603;49.432;11.418;2022-12-22T12:01:47;3.35;;;1.38;;
15012;SDS011;7603;49.432;11.418;2022-12-22T12:04:43;1.02;;;1.02;;
15012;SDS011;7603;49.432;11.418;2022-12-22T12:09:50;3.03;;;1.30;;
15012;SDS011;7603;49.432;11.418;2022-12-22T12:20:20;0.70;;;0.70;;
15012;SDS011;7603;49.432;11.418;2022-12-22T12:28:34;0.82;;;0.80;;
15012;SDS011;7603;49.432;11.418;2022-12-22T12:31:11;2.95;;;0.75;;
15012;SDS011;7603;49.432;11.418;2022-12-22T12:33:45;0.85;;;0.85;;
15012;SDS011;7603;49.432;11.418;2022-12-22T12:36:37;1.55;;;1.15;;
15012;SDS011;7603;49.432;11.418;2022-12-22T12:44:37;1.27;;;1.08;;
15012;SDS011;7603;49.432;11.418;2022-12-22T12:47:17;0.85;;;0.80;;
15012;SDS011;7603;49.432;11.418;2022-12-22T12:50:01;0.93;;;0.93;;
15012;SDS011;7603;49.432;11.418;2022-12-22T12:57:49;2.13;;;1.27;;
15012;SDS011;7603;49.432;11.418;2022-12-22T13:03:07;0.70;;;0.70;;
15012;SDS011;7603;49.432;11.418;2022-12-22T13:05:59;0.60;;;0.60;;
15012;SDS011;7603;49.432;11.418;2022-12-22T13:24:03;0.80;;;0.70;;
15012;SDS011;7603;49.432;11.418;2022-12-22T13:26:37;0.90;;;0.90;;
15012;SDS011;7603;49.432;11.418;2022-12-22T13:29:12;1.92;;;0.98;;
15012;SDS011;7603;49.432;11.418;2022-12-22T13:32:02;0.80;;;0.80;;
15012;SDS011;7603;49.432;11.418;2022-12-22T13:37:17;0.77;;;0.77;;
15012;SDS011;7603;49.432;11.418;2022-12-22T13:43:03;0.43;;;0.43;;
15012;SDS011;7603;49.432;11.418;2022-12-22T13:45:38;0.70;;;0.70;;
15012;SDS011;7603;49.432;11.418;2022-12-22T13:50:42;1.48;;;0.82;;
15012;SDS011;7603;49.432;11.418;2022-12-22T13:53:14;0.57;;;0.57;;
15012;SDS011;7603;49.432;11.418;2022-12-22T13:55:44;0.80;;;0.80;;
15012;SDS011;7603;49.432;11.418;2022-12-22T13:58:28;1.00;;;1.00;;
15012;SDS011;7603;49.432;11.418;2022-12-22T14:01:02;1.33;;;1.10;;
15012;SDS011;7603;49.432;11.418;2022-12-22T14:03:56;2.88;;;1.10;;
15012;SDS011;7603;49.432;11.418;2022-12-22T14:08:51;1.13;;;1.13;;
15012;SDS011;7603;49.432;11.418;2022-12-22T14:11:17;1.70;;;1.23;;
15012;SDS011;7603;49.432;11.418;2022-12-22T14:13:43;1.00;;;1.00;;
15012;SDS011;7603;49.432;11.418;2022-12-22T14:16:11;0.90;;;0.90;;
15012;SDS011;7603;49.432;11.418;2022-12-22T14:18:38;1.45;;;1.00;;
15012;SDS011;7603;49.432;11.418;2022-12-22T14:21:05;1.13;;;1.13;;
15012;SDS011;7603;49.432;11.418;2022-12-22T14:23:33;1.92;;;1.30;;
15012;SDS011;7603;49.432;11.418;2022-12-22T14:26:03;0.90;;;0.90;;
15012;SDS011;7603;49.432;11.418;2022-12-22T14:31:02;3.03;;;1.52;;
15012;SDS011;7603;49.432;11.418;2022-12-22T14:33:32;0.93;;;0.93;;
15012;SDS011;7603;49.432;11.418;2022-12-22T14:38:50;4.38;;;2.03;;
15012;SDS011;7603;49.432;11.418;2022-12-22T14:44:17;0.95;;;0.95;;
15012;SDS011;7603;49.432;11.418;2022-12-22T14:47:03;3.33;;;1.63;;
15012;SDS011;7603;49.432;11.418;2022-12-22T14:49:30;1.77;;;0.93;;
15012;SDS011;7603;49.432;11.418;2022-12-22T14:52:01;0.88;;;0.88;;
15012;SDS011;7603;49.432;11.418;2022-12-22T14:54:31;2.20;;;1.70;;
15012;SDS011;7603;49.432;11.418;2022-12-22T14:56:59;0.90;;;0.90;;
15012;SDS011;7603;49.432;11.418;2022-12-22T14:59:28;2.72;;;1.35;;
15012;SDS011;7603;49.432;11.418;2022-12-22T15:01:56;0.82;;;0.82;;
15012;SDS011;7603;49.432;11.418;2022-12-22T15:04:22;1.15;;;0.93;;
15012;SDS011;7603;49.432;11.418;2022-12-22T15:06:48;1.48;;;1.30;;
15012;SDS011;7603;49.432;11.418;2022-12-22T15:11:43;1.88;;;1.75;;
15012;SDS011;7603;49.432;11.418;2022-12-22T15:14:16;3.00;;;1.95;;
15012;SDS011;7603;49.432;11.418;2022-12-22T15:16:48;1.27;;;1.20;;
15012;SDS011;7603;49.432;11.418;2022-12-22T15:19:18;3.28;;;1.40;;
15012;SDS011;7603;49.432;11.418;2022-12-22T15:21:47;2.83;;;2.25;;
15012;SDS011;7603;49.432;11.418;2022-12-22T15:24:14;1.48;;;1.38;;
15012;SDS011;7603;49.432;11.418;2022-12-22T15:26:41;1.60;;;1.50;;
15012;SDS011;7603;49.432;11.418;2022-12-22T15:29:07;1.92;;;1.67;;
15012;SDS011;7603;49.432;11.418;2022-12-22T15:31:33;2.38;;;2.17;;
15012;SDS011;7603;49.432;11.418;2022-12-22T15:34:00;1.20;;;1.10;;
15012;SDS011;7603;49.432;11.418;2022-12-22T15:36:27;1.35;;;1.30;;
15012;SDS011;7603;49.432;11.418;2022-12-22T15:38:53;1.67;;;1.58;;
15012;SDS011;7603;49.432;11.418;2022-12-22T15:41:19;1.15;;;1.15;;
15012;SDS011;7603;49.432;11.418;2022-12-22T15:43:44;1.55;;;1.33;;
15012;SDS011;7603;49.432;11.418;2022-12-22T15:46:13;1.60;;;1.50;;
15012;SDS011;7603;49.432;11.418;2022-12-22T15:48:41;2.30;;;2.17;;
15012;SDS011;7603;49.432;11.418;2022-12-22T15:51:09;1.67;;;1.58;;
15012;SDS011;7603;49.432;11.418;2022-12-22T15:53:44;1.45;;;1.38;;
15012;SDS011;7603;49.432;11.418;2022-12-22T15:56:11;2.10;;;1.80;;
15012;SDS011;7603;49.432;11.418;2022-12-22T15:58:44;1.30;;;1.20;;
15012;SDS011;7603;49.432;11.418;2022-12-22T16:01:10;1.50;;;1.42;;
15012;SDS011;7603;49.432;11.418;2022-12-22T16:03:36;2.15;;;2.00;;
15012;SDS011;7603;49.432;11.418;2022-12-22T16:06:02;1.13;;;1.13;;
15012;SDS011;7603;49.432;11.418;2022-12-22T16:08:30;1.60;;;1.50;;
15012;SDS011;7603;49.432;11.418;2022-12-22T16:11:01;2.47;;;2.28;;
15012;SDS011;7603;49.432;11.418;2022-12-22T16:13:28;3.05;;;2.63;;
15012;SDS011;7603;49.432;11.418;2022-12-22T16:15:55;1.65;;;1.55;;
15012;SDS011;7603;49.432;11.418;2022-12-22T16:18:21;2.28;;;1.98;;
15012;SDS011;7603;49.432;11.418;2022-12-22T16:20:47;4.93;;;3.33;;
15012;SDS011;7603;49.432;11.418;2022-12-22T16:23:17;8.40;;;3.65;;
15012;SDS011;7603;49.432;11.418;2022-12-22T16:25:45;6.78;;;3.85;;
15012;SDS011;7603;49.432;11.418;2022-12-22T16:28:13;2.47;;;2.28;;
15012;SDS011;7603;49.432;11.418;2022-12-22T16:30:42;2.55;;;2.45;;
15012;SDS011;7603;49.432;11.418;2022-12-22T16:33:10;4.13;;;3.83;;
15012;SDS011;7603;49.432;11.418;2022-12-22T16:35:37;2.00;;;1.90;;
15012;SDS011;7603;49.432;11.418;2022-12-22T16:38:03;3.63;;;2.55;;
15012;SDS011;7603;49.432;11.418;2022-12-22T16:40:30;4.97;;;1.90;;
15012;SDS011;7603;49.432;11.418;2022-12-22T16:45:26;9.25;;;3.80;;
15012;SDS011;7603;49.432;11.418;2022-12-22T16:47:57;13.68;;;7.07;;
15012;SDS011;7603;49.432;11.418;2022-12-22T16:50:25;2.95;;;2.75;;
15012;SDS011;7603;49.432;11.418;2022-12-22T16:53:00;6.03;;;4.13;;
15012;SDS011;7603;49.432;11.418;2022-12-22T16:55:29;2.60;;;2.40;;
15012;SDS011;7603;49.432;11.418;2022-12-22T16:57:55;1.95;;;1.85;;
15012;SDS011;7603;49.432;11.418;2022-12-22T17:00:22;1.98;;;1.88;;
15012;SDS011;7603;49.432;11.418;2022-12-22T17:02:52;1.80;;;1.70;;
15012;SDS011;7603;49.432;11.418;2022-12-22T17:05:38;2.35;;;1.90;;
15012;SDS011;7603;49.432;11.418;2022-12-22T17:08:19;2.33;;;2.22;;
15012;SDS011;7603;49.432;11.418;2022-12-22T17:10:48;2.47;;;2.38;;
15012;SDS011;7603;49.432;11.418;2022-12-22T17:13:15;2.50;;;2.00;;
15012;SDS011;7603;49.432;11.418;2022-12-22T17:15:41;3.72;;;2.53;;
15012;SDS011;7603;49.432;11.418;2022-12-22T17:18:14;2.50;;;1.77;;
15012;SDS011;7603;49.432;11.418;2022-12-22T17:20:41;1.83;;;1.73;;
15012;SDS011;7603;49.432;11.418;2022-12-22T17:23:14;3.17;;;2.40;;
15012;SDS011;7603;49.432;11.418;2022-12-22T17:26:00;2.15;;;2.00;;
15012;SDS011;7603;49.432;11.418;2022-12-22T17:28:29;3.40;;;3.15;;
15012;SDS011;7603;49.432;11.418;2022-12-22T17:30:56;4.18;;;3.08;;
15012;SDS011;7603;49.432;11.418;2022-12-22T17:33:22;3.67;;;3.38;;
15012;SDS011;7603;49.432;11.418;2022-12-22T17:35:47;3.38;;;2.05;;
15012;SDS011;7603;49.432;11.418;2022-12-22T17:38:14;4.95;;;4.53;;
15012;SDS011;7603;49.432;11.418;2022-12-22T17:40:41;2.97;;;2.78;;
15012;SDS011;7603;49.432;11.418;2022-12-22T17:43:14;9.40;;;4.00;;
15012;SDS011;7603;49.432;11.418;2022-12-22T17:45:41;4.93;;;2.13;;
15012;SDS011;7603;49.432;11.418;2022-12-22T17:48:09;3.40;;;3.20;;
15012;SDS011;7603;49.432;11.418;2022-12-22T17:50:35;3.95;;;2.72;;
15012;SDS011;7603;49.432;11.418;2022-12-22T17:53:01;3.20;;;3.00;;